createdAt,value
2018-11-29T03:51:10.104Z,15.80
2018-11-29T03:53:38.245Z,16.40
2018-11-29T03:56:07.594Z,14.80
2018-11-29T03:58:35.913Z,14.90
2018-11-29T04:01:04.117Z,16.50
2018-11-29T04:03:32.225Z,15.50
2018-11-29T04:06:00.424Z,15.90
2018-11-29T04:08:28.489Z,16.87
2018-11-29T04:10:56.585Z,16.20
2018-11-29T04:13:24.695Z,15.03
2018-11-29T04:15:52.914Z,15.30
2018-11-29T04:18:21.009Z,15.53
2018-11-29T04:20:49.104Z,14.70
2018-11-29T04:23:17.221Z,15.13
2018-11-29T04:25:45.329Z,16.30
2018-11-29T04:28:13.462Z,14.73
2018-11-29T04:30:41.586Z,15.00
2018-11-29T04:33:09.673Z,13.83
2018-11-29T04:35:37.821Z,13.80
2018-11-29T04:38:05.961Z,14.80
2018-11-29T04:40:34.058Z,15.00
2018-11-29T04:43:02.165Z,14.63
2018-11-29T04:45:41.741Z,15.13
2018-11-29T04:48:10.125Z,15.23
2018-11-29T04:50:37.964Z,13.70
2018-11-29T04:53:08.336Z,14.67
2018-11-29T04:55:36.534Z,13.70
2018-11-29T04:58:04.890Z,14.50
2018-11-29T05:00:33.529Z,15.10
2018-11-29T05:03:01.624Z,16.07
2018-11-29T05:05:29.753Z,16.20
2018-11-29T05:07:58.648Z,15.10
2018-11-29T05:10:26.888Z,15.70
2018-11-29T05:12:54.995Z,16.20
2018-11-29T05:15:23.085Z,16.13
2018-11-29T05:17:51.198Z,16.27
2018-11-29T05:20:19.336Z,16.50
2018-11-29T05:22:47.433Z,15.70
2018-11-29T05:25:16.927Z,16.80
2018-11-29T05:27:43.679Z,15.17
2018-11-29T05:30:13.027Z,15.70
2018-11-29T05:32:41.152Z,13.43
2018-11-29T05:35:11.207Z,14.80
2018-11-29T05:37:39.277Z,14.77
2018-11-29T05:40:09.563Z,12.70
2018-11-29T05:42:37.649Z,14.70
2018-11-29T05:45:06.646Z,14.80
2018-11-29T05:47:34.745Z,14.40
2018-11-29T05:50:02.883Z,14.50
2018-11-29T05:52:31.156Z,15.40
2018-11-29T05:54:59.361Z,14.10
2018-11-29T05:57:27.532Z,14.80
2018-11-29T05:59:57.021Z,13.90
2018-11-29T06:02:25.172Z,15.60
2018-11-29T06:04:54.690Z,15.90
2018-11-29T06:07:27.912Z,15.60
2018-11-29T06:09:56.070Z,15.30
2018-11-29T06:12:24.193Z,15.37
2018-11-29T06:14:52.261Z,16.00
2018-11-29T06:17:20.358Z,14.93
2018-11-29T06:19:48.433Z,14.70
2018-11-29T06:22:16.513Z,15.60
2018-11-29T06:24:44.627Z,15.33
2018-11-29T06:27:12.792Z,15.20
2018-11-29T06:29:40.892Z,15.47
2018-11-29T06:32:09.029Z,16.80
2018-11-29T06:34:37.153Z,15.50
2018-11-29T06:37:05.362Z,15.67
2018-11-29T06:39:33.447Z,15.10
2018-11-29T06:42:01.513Z,15.50
2018-11-29T06:44:29.609Z,15.17
2018-11-29T06:46:57.697Z,15.10
2018-11-29T06:49:25.780Z,15.50
2018-11-29T06:51:53.841Z,15.53
2018-11-29T06:54:21.925Z,15.50
2018-11-29T06:56:49.998Z,16.30
2018-11-29T06:59:18.107Z,16.00
2018-11-29T07:01:46.184Z,15.30
2018-11-29T07:04:14.311Z,15.00
2018-11-29T07:06:42.392Z,14.70
2018-11-29T07:09:10.479Z,15.90
2018-11-29T07:11:38.542Z,15.70
2018-11-29T07:14:06.634Z,15.53
2018-11-29T07:16:34.719Z,17.33
2018-11-29T07:19:02.796Z,14.40
2018-11-29T07:22:01.866Z,16.10
2018-11-29T07:24:30.011Z,15.50
2018-11-29T07:26:58.061Z,15.80
2018-11-29T07:29:26.140Z,15.77
2018-11-29T07:31:54.212Z,14.43
2018-11-29T07:34:22.287Z,14.80
2018-11-29T07:36:50.408Z,13.20
2018-11-29T07:39:18.455Z,13.63
2018-11-29T07:41:46.524Z,13.63
2018-11-29T07:44:14.643Z,13.87
2018-11-29T07:46:42.728Z,13.93
2018-11-29T07:49:10.805Z,14.40
2018-11-29T07:51:38.892Z,13.20
2018-11-29T07:54:07.004Z,12.47
2018-11-29T07:56:35.098Z,13.63
2018-11-29T07:59:03.167Z,14.43
2018-11-29T08:01:31.290Z,14.30
2018-11-29T08:03:59.376Z,14.53
2018-11-29T08:06:27.446Z,14.07
2018-11-29T08:08:55.518Z,13.23
2018-11-29T08:11:23.595Z,12.90
2018-11-29T08:13:51.749Z,13.87
2018-11-29T08:16:19.808Z,12.63
2018-11-29T08:18:47.953Z,14.13
2018-11-29T08:21:16.013Z,13.10
2018-11-29T08:23:44.088Z,14.97
2018-11-29T08:26:12.188Z,13.27
2018-11-29T08:28:40.260Z,12.90
2018-11-29T08:31:08.348Z,13.93
2018-11-29T08:33:36.500Z,14.30
2018-11-29T08:36:04.605Z,12.07
2018-11-29T08:38:32.685Z,12.03
2018-11-29T08:41:00.805Z,13.67
2018-11-29T08:43:28.889Z,11.53
2018-11-29T08:45:57.000Z,13.70
2018-11-29T08:48:25.067Z,12.43
2018-11-29T08:50:53.179Z,13.10
2018-11-29T08:53:21.290Z,12.70
2018-11-29T08:55:49.345Z,11.80
2018-11-29T08:58:17.433Z,10.97
2018-11-29T09:00:45.534Z,10.33
2018-11-29T09:03:13.625Z,12.10
2018-11-29T09:05:41.704Z,11.07
2018-11-29T09:08:09.848Z,10.73
2018-11-29T09:10:37.953Z,11.10
2018-11-29T09:13:06.041Z,10.50
2018-11-29T09:15:34.111Z,11.13
2018-11-29T09:18:02.208Z,11.57
2018-11-29T09:20:30.267Z,11.30
2018-11-29T09:22:58.356Z,11.80
2018-11-29T09:25:26.429Z,11.53
2018-11-29T09:27:54.596Z,11.50
2018-11-29T09:30:23.245Z,11.57
2018-11-29T09:32:52.573Z,11.80
2018-11-29T09:35:20.652Z,12.83
2018-11-29T09:37:48.721Z,12.63
2018-11-29T09:40:17.462Z,11.87
2018-11-29T09:42:45.690Z,13.33
2018-11-29T09:45:17.766Z,13.27
2018-11-29T09:47:47.068Z,12.03
2018-11-29T09:50:16.257Z,12.07
2018-11-29T09:52:44.404Z,13.10
2018-11-29T09:55:13.372Z,12.60
2018-11-29T09:57:41.760Z,12.27
2018-11-29T10:00:27.132Z,12.57
2018-11-29T10:02:54.764Z,11.37
2018-11-29T10:05:22.850Z,11.37
2018-11-29T10:07:50.940Z,11.93
2018-11-29T10:10:19.013Z,12.53
2018-11-29T10:12:47.101Z,13.00
2018-11-29T10:15:15.183Z,12.60
2018-11-29T10:17:43.254Z,12.97
2018-11-29T10:20:12.284Z,13.33
2018-11-29T10:22:41.289Z,13.47
2018-11-29T10:25:10.763Z,14.10
2018-11-29T10:27:38.908Z,13.57
2018-11-29T10:30:12.064Z,14.40
2018-11-29T10:32:40.117Z,14.27
2018-11-29T10:35:08.741Z,13.10
2018-11-29T10:37:36.843Z,13.37
2018-11-29T10:40:07.456Z,13.43
2018-11-29T10:42:35.572Z,13.00
2018-11-29T10:45:03.716Z,12.93
2018-11-29T10:47:31.847Z,12.93
2018-11-29T10:49:59.950Z,13.97
2018-11-29T10:52:28.028Z,13.23
2018-11-29T10:54:56.109Z,13.60
2018-11-29T10:57:24.172Z,13.57
2018-11-29T10:59:52.238Z,13.93
2018-11-29T11:02:25.801Z,14.30
2018-11-29T11:04:53.872Z,14.50
2018-11-29T11:07:21.941Z,13.40
2018-11-29T11:09:49.993Z,12.33
2018-11-29T11:12:18.725Z,12.10
2018-11-29T11:14:46.156Z,12.17
2018-11-29T11:17:14.204Z,13.87
2018-11-29T11:19:42.441Z,13.60
2018-11-29T11:22:10.528Z,12.33
2018-11-29T11:24:38.630Z,13.23
2018-11-29T11:27:06.711Z,13.70
2018-11-29T11:29:34.811Z,13.83
2018-11-29T11:32:02.885Z,12.40
2018-11-29T11:34:31.119Z,14.90
2018-11-29T11:36:59.208Z,12.90
2018-11-29T11:39:27.284Z,12.60
2018-11-29T11:41:55.352Z,13.97
2018-11-29T11:44:23.434Z,15.23
2018-11-29T11:46:51.524Z,13.33
2018-11-29T11:49:19.614Z,12.23
2018-11-29T11:51:47.689Z,12.63
2018-11-29T11:54:15.756Z,13.27
2018-11-29T11:56:43.832Z,12.10
2018-11-29T11:59:11.973Z,12.83
2018-11-29T12:01:40.024Z,12.90
2018-11-29T12:04:08.105Z,12.60
2018-11-29T12:06:36.184Z,11.50
2018-11-29T12:09:07.347Z,12.77
2018-11-29T12:11:35.421Z,13.83
2018-11-29T12:14:03.530Z,12.77
2018-11-29T12:16:31.600Z,12.70
2018-11-29T12:19:02.461Z,12.83
2018-11-29T12:21:27.747Z,14.13
2018-11-29T12:23:55.832Z,13.30
2018-11-29T12:26:23.897Z,13.40
2018-11-29T12:28:51.969Z,12.20
2018-11-29T12:31:20.045Z,12.27
2018-11-29T12:33:48.115Z,13.10
2018-11-29T12:36:16.196Z,12.10
2018-11-29T12:38:44.292Z,12.47
2018-11-29T12:41:12.335Z,12.03
2018-11-29T12:43:40.403Z,12.53
2018-11-29T12:46:08.468Z,11.27
2018-11-29T12:48:36.593Z,12.47
2018-11-29T12:51:04.727Z,12.77
2018-11-29T12:53:33.015Z,11.40
2018-11-29T12:56:00.884Z,11.77
2018-11-29T12:58:29.039Z,11.40
2018-11-29T13:00:57.117Z,12.10
2018-11-29T13:03:25.177Z,11.03
2018-11-29T13:05:53.314Z,11.90
2018-11-29T13:08:24.541Z,11.43
2018-11-29T13:10:53.146Z,10.20
2018-11-29T13:13:21.206Z,10.30
2018-11-29T13:15:49.298Z,11.87
2018-11-29T13:18:17.351Z,10.83
2018-11-29T13:20:45.428Z,11.80
2018-11-29T13:23:13.493Z,10.93
2018-11-29T13:25:41.597Z,10.87
2018-11-29T13:28:09.668Z,12.13
2018-11-29T13:30:37.960Z,10.33
2018-11-29T13:33:07.630Z,10.17
2018-11-29T13:35:35.919Z,9.87
2018-11-29T13:38:08.701Z,10.03
2018-11-29T13:40:36.793Z,11.23
2018-11-29T13:43:04.866Z,9.17
2018-11-29T13:45:33.012Z,10.90
2018-11-29T13:48:01.108Z,9.20
2018-11-29T13:50:29.170Z,9.50
2018-11-29T13:52:57.240Z,10.87
2018-11-29T13:55:25.336Z,9.00
2018-11-29T13:57:53.432Z,10.07
2018-11-29T14:00:22.657Z,9.17
2018-11-29T14:02:52.065Z,9.27
2018-11-29T14:05:20.128Z,9.63
2018-11-29T14:07:48.232Z,9.50
2018-11-29T14:10:17.405Z,9.97
2018-11-29T14:12:46.183Z,9.70
2018-11-29T14:15:15.366Z,9.87
2018-11-29T14:17:43.472Z,9.60
2018-11-29T14:20:12.883Z,10.10
2018-11-29T14:22:40.980Z,9.97
2018-11-29T14:25:10.412Z,11.40
2018-11-29T14:27:38.605Z,11.43
2018-11-29T14:30:10.888Z,10.30
2018-11-29T14:32:39.002Z,11.43
2018-11-29T14:35:07.453Z,11.17
2018-11-29T14:37:35.587Z,10.80
2018-11-29T14:40:04.305Z,10.37
2018-11-29T14:42:32.483Z,10.97
2018-11-29T14:45:00.599Z,10.80
2018-11-29T14:47:28.681Z,10.70
2018-11-29T14:49:56.801Z,10.80
2018-11-29T14:52:24.891Z,11.07
2018-11-29T14:54:52.984Z,10.77
2018-11-29T14:57:21.143Z,10.50
2018-11-29T14:59:49.236Z,11.63
2018-11-29T15:02:17.323Z,11.20
2018-11-29T15:04:45.423Z,11.90
2018-11-29T15:07:13.546Z,10.40
2018-11-29T15:09:41.640Z,11.30
2018-11-29T15:12:09.781Z,11.27
2018-11-29T15:14:37.841Z,10.60
2018-11-29T15:17:05.918Z,11.57
2018-11-29T15:19:34.049Z,11.10
2018-11-29T15:22:02.228Z,11.93
2018-11-29T15:24:30.335Z,12.03
2018-11-29T15:26:58.449Z,11.40
2018-11-29T15:29:26.544Z,11.37
2018-11-29T15:31:54.600Z,9.50
2018-11-29T15:34:23.521Z,11.50
2018-11-29T15:36:51.608Z,10.87
2018-11-29T15:39:19.673Z,9.90
2018-11-29T15:41:47.880Z,10.87
2018-11-29T15:44:16.015Z,10.70
2018-11-29T15:46:44.085Z,10.93
2018-11-29T15:49:12.224Z,12.07
2018-11-29T15:51:40.316Z,13.77
2018-11-29T15:54:08.414Z,12.10
2018-11-29T15:56:36.489Z,11.50
2018-11-29T15:59:04.804Z,13.60
2018-11-29T16:01:32.938Z,13.23
2018-11-29T16:04:01.056Z,13.30
2018-11-29T16:06:29.111Z,14.70
2018-11-29T16:08:57.219Z,13.27
2018-11-29T16:11:25.266Z,12.50
2018-11-29T16:13:53.331Z,13.63
2018-11-29T16:16:21.420Z,12.37
2018-11-29T16:18:49.489Z,11.37
2018-11-29T16:21:17.557Z,11.80
2018-11-29T16:23:45.619Z,13.40
2018-11-29T16:26:13.713Z,13.23
2018-11-29T16:28:41.785Z,13.30
2018-11-29T16:31:09.973Z,13.37
2018-11-29T16:33:39.149Z,13.63
2018-11-29T16:36:08.073Z,13.00
2018-11-29T16:38:36.185Z,13.50
2018-11-29T16:41:04.284Z,13.53
2018-11-29T16:43:32.456Z,14.33
2018-11-29T16:46:00.541Z,13.43
2018-11-29T16:48:28.605Z,13.17
2018-11-29T16:50:56.683Z,11.10
2018-11-29T16:53:24.734Z,12.47
2018-11-29T16:55:53.017Z,11.17
2018-11-29T16:58:23.795Z,10.50
2018-11-29T17:00:51.878Z,12.43
2018-11-29T17:03:19.957Z,12.57
2018-11-29T17:05:48.049Z,11.70
2018-11-29T17:08:16.128Z,10.70
2018-11-29T17:10:44.201Z,10.70
2018-11-29T17:13:13.906Z,9.33
2018-11-29T17:15:41.965Z,10.20
2018-11-29T17:18:10.033Z,9.60
2018-11-29T17:20:38.130Z,9.27
2018-11-29T17:23:07.809Z,9.83
2018-11-29T17:25:35.889Z,8.90
2018-11-29T17:28:04.060Z,9.70
2018-11-29T17:30:32.120Z,9.70
2018-11-29T17:33:00.208Z,9.47
2018-11-29T17:35:28.256Z,8.17
2018-11-29T17:37:58.293Z,8.53
2018-11-29T17:40:26.372Z,9.63
2018-11-29T17:42:55.148Z,9.20
2018-11-29T17:45:25.468Z,9.10
2018-11-29T17:47:54.821Z,8.47
2018-11-29T17:50:26.238Z,9.30
2018-11-29T17:52:54.283Z,8.73
2018-11-29T17:55:22.485Z,8.10
2018-11-29T17:57:50.664Z,8.90
2018-11-29T18:00:22.949Z,9.00
2018-11-29T18:02:51.053Z,8.87
2018-11-29T18:05:19.097Z,8.80
2018-11-29T18:07:47.160Z,9.13
2018-11-29T18:10:16.744Z,9.33
2018-11-29T18:12:45.617Z,8.97
2018-11-29T18:15:15.339Z,8.77
2018-11-29T18:17:43.409Z,9.13
2018-11-29T18:20:12.192Z,9.17
2018-11-29T18:22:40.396Z,10.07
2018-11-29T18:25:09.671Z,10.27
2018-11-29T18:27:37.785Z,10.37
2018-11-29T18:30:10.257Z,8.60
2018-11-29T18:32:38.339Z,9.40
2018-11-29T18:35:08.001Z,9.07
2018-11-29T18:37:36.053Z,9.17
2018-11-29T18:40:05.082Z,8.63
2018-11-29T18:42:33.137Z,8.83
2018-11-29T18:45:01.240Z,7.30
2018-11-29T18:47:29.287Z,8.10
2018-11-29T18:49:57.361Z,7.70
2018-11-29T18:52:25.445Z,7.87
2018-11-29T18:54:53.505Z,8.27
2018-11-29T18:57:21.592Z,8.17
2018-11-29T18:59:49.653Z,7.57
2018-11-29T19:02:17.739Z,8.10
2018-11-29T19:04:45.821Z,7.20
2018-11-29T19:07:13.879Z,7.90
2018-11-29T19:09:41.944Z,13.07
2018-11-29T19:12:10.051Z,9.03
2018-11-29T19:14:38.126Z,12.53
2018-11-29T19:17:06.497Z,10.47
2018-11-29T19:19:34.571Z,6.93
2018-11-29T19:22:02.634Z,8.30
2018-11-29T19:24:30.698Z,7.83
2018-11-29T19:26:58.825Z,8.90
2018-11-29T19:29:26.915Z,8.40
2018-11-29T19:31:55.006Z,9.40
2018-11-29T19:34:23.208Z,8.10
2018-11-29T19:36:51.193Z,9.67
2018-11-29T19:39:19.364Z,8.93
2018-11-29T19:41:47.475Z,7.90
2018-11-29T19:44:15.569Z,10.20
2018-11-29T19:46:44.348Z,12.30
2018-11-29T19:49:12.509Z,9.00
2018-11-29T19:51:40.521Z,9.80
2018-11-29T19:54:08.596Z,9.90
2018-11-29T19:56:36.669Z,10.47
2018-11-29T19:59:04.885Z,8.77
2018-11-29T20:01:32.957Z,13.87
2018-11-29T20:04:01.025Z,15.80
2018-11-29T20:06:29.132Z,9.50
2018-11-29T20:08:57.209Z,12.10
2018-11-29T20:11:25.275Z,8.57
2018-11-29T20:13:53.388Z,9.30
2018-11-29T20:16:21.420Z,7.77
2018-11-29T20:18:49.480Z,7.10
2018-11-29T20:21:17.560Z,8.73
2018-11-29T20:23:45.642Z,9.00
2018-11-29T20:26:13.694Z,8.10
2018-11-29T20:28:41.805Z,7.80
2018-11-29T20:31:09.861Z,8.30
2018-11-29T20:33:38.069Z,9.63
2018-11-29T20:36:06.133Z,8.97
2018-11-29T20:38:34.217Z,8.80
2018-11-29T20:41:02.374Z,8.93
2018-11-29T20:43:30.461Z,9.13
2018-11-29T20:45:58.538Z,9.17
2018-11-29T20:48:27.728Z,8.70
2018-11-29T20:50:57.087Z,8.20
2018-11-29T20:53:27.344Z,7.90
2018-11-29T20:55:55.402Z,7.73
2018-11-29T20:58:23.483Z,7.83
2018-11-29T21:00:51.571Z,8.27
2018-11-29T21:03:19.617Z,8.50
2018-11-29T21:05:47.723Z,8.73
2018-11-29T21:08:15.808Z,7.77
2018-11-29T21:10:43.949Z,8.47
2018-11-29T21:13:12.019Z,9.33
2018-11-29T21:15:41.642Z,7.30
2018-11-29T21:18:12.135Z,7.97
2018-11-29T21:20:41.360Z,7.90
2018-11-29T21:23:11.670Z,9.17
2018-11-29T21:25:39.774Z,7.33
2018-11-29T21:28:07.929Z,8.33
2018-11-29T21:30:36.065Z,8.43
2018-11-29T21:33:04.797Z,8.60
2018-11-29T21:35:33.120Z,8.37
2018-11-29T21:38:18.360Z,8.53
2018-11-29T21:40:51.112Z,7.37
2018-11-29T21:43:19.195Z,8.63
2018-11-29T21:45:47.386Z,8.50
2018-11-29T21:48:15.440Z,7.80
2018-11-29T21:50:43.513Z,8.17
2018-11-29T21:53:11.603Z,7.13
2018-11-29T21:55:40.701Z,6.77
2018-11-29T21:58:08.829Z,7.17
